Frankfurt-Egelsbach Airport

EDFE · Hesse, Germany

METAR history EDFE · Frankfurt-Egelsbach Airport

Below you see METARs of the last few days. Select a year to browse through older METARs, from the year 2007 onwards.

December 1, 2022

Time Code Weather Temp. Visibility Ceiling Wind METAR/SPECI
04:50
M
4 °C 10 km+ 1,200 ft 090° 090° 5 kt METAR EDDF 010350Z AUTO 09005KT 9999 SCT008 OVC012 04/03 Q1024 TEMPO BKN008
04:20
I
4 °C 10 km+ 800 ft 060° 060° 4 kt METAR EDDF 010320Z AUTO 06004KT 9999 FEW003 BKN008 OVC012 04/03 Q1024 NOSIG
03:50
M
4 °C 9 km 1,200 ft 070° 070° 4 kt METAR EDDF 010250Z AUTO 07004KT 9000 -DZ SCT007 OVC012 04/03 Q1024 TEMPO BKN006
03:20
I
4 °C 7 km 800 ft 050° 050° 3 kt METAR EDDF 010220Z AUTO 05003KT 7000 -DZ BKN008 OVC014 04/04 Q1024 NOSIG
02:50
M
5 °C 9 km 1,500 ft 080° 080° 4 kt METAR EDDF 010150Z AUTO 08004KT 9000 FEW009 OVC015 05/03 Q1024 NOSIG
02:20
M
5 °C 7 km 1,300 ft 100° 100° 5 kt METAR EDDF 010120Z AUTO 10005KT 070V130 7000 FEW006 OVC013 05/04 Q1024 TEMPO BKN015
01:50
M
5 °C 6 km 1,300 ft 150° 150° 5 kt METAR EDDF 010050Z AUTO 15005KT 6000 -DZ SCT006 OVC013 05/04 Q1024 TEMPO BKN006
01:20
M
5 °C 8 km 1,100 ft 140° 140° 5 kt METAR EDDF 010020Z AUTO 14005KT 8000 FEW005 BKN011 OVC015 05/04 Q1024 TEMPO BKN005
00:50
I
5 °C 8 km 600 ft 140° 140° 7 kt METAR EDDF 302350Z AUTO 14007KT 8000 -DZ BKN006 BKN014 05/04 Q1024 NOSIG
00:20
M
6 °C 10 km+ 1,300 ft 140° 140° 4 kt METAR EDDF 302320Z AUTO 14004KT 9999 -DZ BKN013 06/05 Q1024 NOSIG

November 30, 2022

Time Code Weather Temp. Visibility Ceiling Wind METAR/SPECI
23:50
M
6 °C 10 km+ 1,100 ft 130° 130° 3 kt METAR EDDF 302250Z AUTO 13003KT 9999 -DZ BKN011 06/05 Q1024 NOSIG
23:20
M
6 °C 10 km+ 1,200 ft 150° 150° 4 kt METAR EDDF 302220Z AUTO 15004KT 9999 OVC012 06/05 Q1024
22:50
M
7 °C 10 km+ 1,300 ft 110° 110° 5 kt METAR EDDF 302150Z AUTO 11005KT 9999 -DZ OVC013 07/05 Q1024
22:20
M
7 °C 10 km+ 1,200 ft Var Var 2 kt METAR EDDF 302120Z AUTO VRB02KT 9999 BKN012 OVC016 07/05 Q1024 NOSIG
21:50
M
7 °C 10 km+ 1,600 ft Var Var 1 kt METAR EDDF 302050Z AUTO VRB01KT 9999 FEW008 OVC016 07/06 Q1023 BECMG OVC012
21:20
M
7 °C 10 km+ 1,600 ft Var Var 1 kt METAR EDDF 302020Z AUTO VRB01KT 9999 FEW007 OVC016 07/06 Q1023 BECMG BKN013
20:50
M
7 °C 10 km+ 1,800 ft 040° 040° 3 kt METAR EDDF 301950Z AUTO 04003KT 360V090 9999 BKN018 07/06 Q1023 TEMPO BKN014
20:20
M
7 °C 10 km+ 2,000 ft 050° 050° 3 kt METAR EDDF 301920Z AUTO 05003KT 350V070 9999 OVC020 07/06 Q1023 NOSIG
19:50
M
7 °C 10 km+ 2,000 ft 350° 350° 3 kt METAR EDDF 301850Z AUTO 35003KT 330V030 9999 BKN020 07/06 Q1023 NOSIG
19:20
M
7 °C 10 km+ 2,000 ft 350° 350° 5 kt METAR EDDF 301820Z AUTO 35005KT 9999 FEW012 OVC020 07/06 Q1023 NOSIG
18:50
M
7 °C 10 km+ 1,800 ft 050° 050° 3 kt METAR EDDF 301750Z AUTO 05003KT 9999 FEW011 OVC018 07/06 Q1023 NOSIG
18:20
M
7 °C 10 km+ 1,700 ft 070° 070° 5 kt METAR EDDF 301720Z AUTO 07005KT 9999 FEW009 BKN017 OVC022 07/06 Q1023 NOSIG
17:50
M
8 °C 10 km+ 1,800 ft 060° 060° 5 kt METAR EDDF 301650Z AUTO 06005KT 9999 -DZ BKN018 08/06 Q1022 NOSIG
17:20
M
8 °C 10 km+ 1,800 ft 070° 070° 4 kt METAR EDDF 301620Z AUTO 07004KT 9999 BKN018 08/06 Q1022 NOSIG
16:50
M
8 °C 10 km+ 1,900 ft 070° 070° 4 kt METAR EDDF 301550Z AUTO 07004KT 010V080 9999 OVC019 08/06 Q1022
16:20
M
8 °C 10 km+ 2,000 ft 080° 080° 4 kt METAR EDDF 301520Z AUTO 08004KT 9999 BKN020 08/06 Q1022 NOSIG
15:50
M
8 °C 10 km+ 2,200 ft 080° 080° 4 kt METAR EDDF 301450Z AUTO 08004KT 9999 FEW006 BKN022 OVC028 08/06 Q1022 NOSIG
15:20
M
8 °C 10 km+ 1,800 ft 070° 070° 5 kt METAR EDDF 301420Z AUTO 07005KT 9999 FEW008 BKN018 OVC029 08/06 Q1022 NOSIG
14:50
I
8 °C 10 km+ 800 ft 080° 080° 5 kt METAR EDDF 301350Z AUTO 08005KT 9999 BKN008 OVC012 08/06 Q1022 BECMG SCT008
14:20
I
8 °C 10 km+ 700 ft 080° 080° 5 kt METAR EDDF 301320Z AUTO 08005KT 9999 BKN007 08/06 Q1022 NOSIG
13:50
I
8 °C 10 km+ 800 ft 090° 090° 5 kt METAR EDDF 301250Z AUTO 09005KT 9999 OVC008 08/06 Q1022 BECMG SCT008
13:20
I
8 °C 10 km+ 800 ft Var Var 2 kt METAR EDDF 301220Z AUTO VRB02KT 9999 OVC008 08/06 Q1022 NOSIG
12:50
I
8 °C 10 km+ 700 ft 090° 090° 3 kt METAR EDDF 301150Z AUTO 09003KT 9999 OVC007 08/06 Q1022 NOSIG
12:20
I
8 °C 10 km+ 700 ft 120° 120° 3 kt METAR EDDF 301120Z AUTO 12003KT 080V170 9999 OVC007 08/07 Q1022 NOSIG
11:50
I
8 °C 4.1 km 600 ft 120° 120° 6 kt METAR EDDF 301050Z AUTO 12006KT 9999 4100 BR BKN006 OVC011 08/06 Q1022 TEMPO 2500
11:20
I
8 °C 9 km 600 ft 110° 110° 4 kt METAR EDDF 301020Z AUTO 11004KT 070V150 9000 BKN006 BKN010 08/07 Q1022 NOSIG
10:50
I
8 °C 3.4 km 600 ft 090° 090° 2 kt METAR EDDF 300950Z AUTO 09002KT 8000 3400 BR BKN006 OVC011 08/07 Q1022 NOSIG
10:20
L
8 °C 2.1 km 400 ft 050° 050° 3 kt METAR EDDF 300920Z AUTO 05003KT 360V090 7000 2100 BR BKN004 OVC010 08/07 Q1022 BECMG SCT004 BKN010
09:50
L
7 °C 4.1 km 400 ft Var Var 2 kt METAR EDDF 300850Z AUTO VRB02KT 4100 -DZ BR BKN004 BKN007 OVC010 07/07 Q1022 REDZ
09:20
I
7 °C 2.1 km 500 ft Var Var 1 kt METAR EDDF 300820Z AUTO VRB01KT 2100 DZ BR BKN005 OVC009 07/07 Q1022 TEMPO BKN004
08:50
I
7 °C 2.7 km 700 ft Var Var 1 kt METAR EDDF 300750Z AUTO VRB01KT 2700 DZ BR SCT003 BKN007 OVC010 07/07 Q1022 TEMPO BKN003
08:20
I
7 °C 3.9 km 500 ft Var Var 1 kt METAR EDDF 300720Z AUTO VRB01KT 3900 DZ BR BKN005 BKN008 07/06 Q1021 NOSIG
07:50
I
7 °C 5 km 800 ft Var Var 1 kt METAR EDDF 300650Z AUTO VRB01KT 5000 -RADZ BR SCT004 BKN008 BKN013 07/06 Q1021 REDZ TEMPO 4000
07:20
I
7 °C 4.3 km 1,300 ft Var Var 2 kt METAR EDDF 300620Z AUTO VRB02KT 4300 -RADZ BR FEW006 BKN013 07/06 Q1021 REDZ
06:50
M
6 °C 5 km 1,300 ft Var Var 2 kt METAR EDDF 300550Z AUTO VRB02KT 5000 -DZ BR FEW004 BKN013 06/06 Q1021 TEMPO 4000
06:20
M
6 °C 5 km 1,200 ft Var Var 1 kt METAR EDDF 300520Z AUTO VRB01KT 5000 -DZ BR FEW003 OVC012 06/06 Q1021 TEMPO 3000 BCFG
05:50
M
6 °C 6 km 1,300 ft 190° 190° 2 kt METAR EDDF 300450Z AUTO 19002KT 6000 BKN013 OVC021 06/06 Q1021 TEMPO 2000 BR
05:20
I
6 °C 4.9 km 2,200 ft Var Var 1 kt METAR EDDF 300420Z AUTO VRB01KT 4900 -RADZ BR FEW016 BKN022 06/06 Q1021 TEMPO 2000 BR
04:50
I
6 °C 4.6 km 2,600 ft 240° 240° 1 kt METAR EDDF 300350Z AUTO 24001KT 4600 -RA BR SCT020 BKN026 BKN034 06/06 Q1021 TEMPO 2000 BR
04:20
I
6 °C 2.1 km 2,600 ft Var Var 1 kt METAR EDDF 300320Z AUTO VRB01KT 4700 2100 -RA BR FEW020 BKN026 OVC035 06/05 Q1021 TEMPO 1000 BCFG
03:50
I
6 °C 4.3 km 2,000 ft 210° 210° 1 kt METAR EDDF 300250Z AUTO 21001KT 4300 -RADZ BR BKN020 BKN027 BKN038 06/05 Q1021 TEMPO 1000 BCFG
03:20
I
6 °C 4.1 km 4,300 ft Var Var 1 kt METAR EDDF 300220Z AUTO VRB01KT 4100 -RA BR SCT019 BKN043 06/05 Q1021 TEMPO 1000 BCFG
02:50
I
6 °C 4.1 km 4,900 ft Var Var 1 kt METAR EDDF 300150Z AUTO VRB01KT 4100 BR SCT021 BKN049 06/05 Q1021 TEMPO 1000 BCFG
02:20
I
6 °C 4.4 km 2,300 ft Var Var 1 kt METAR EDDF 300120Z AUTO VRB01KT 4400 BR BKN023 BKN043 06/06 Q1020 TEMPO 1000 BCFG
01:50
I
6 °C 1.8 km 2,100 ft 270° 270° 1 kt METAR EDDF 300050Z AUTO 27001KT 4200 1800 BR BKN021 BKN033 OVC044 06/06 Q1020 TEMPO 1000 BCFG
01:20
L
6 °C 700 m 2,100 ft 250° 250° 1 kt METAR EDDF 300020Z AUTO 25001KT 3500 0700 R07L/0900D R07C/P2000N R07R/P2000N R18/P2000N -RA BCFG SCT017 BKN021 BKN047 06/06 Q1021 TEMPO 0700 FG BKN001
00:50
L
6 °C 800 m 4,800 ft 290° 290° 3 kt METAR EDDF 292350Z AUTO 29003KT 1100 0800 R07L/1500U R07C/1400U R07R/1900D R18/1900N -RA BCFG FEW020 BKN048 06/06 Q1021 NOSIG
00:20
L
6 °C 500 m 3,500 ft 200° 200° 2 kt METAR EDDF 292320Z AUTO 20002KT 1000 0500 R07L/1200N R07C/1100N R07R/1400U R18/0900U -RA BCFG SCT021 BKN035 OVC042 06/06 Q1021 TEMPO 0500 FG BKN001

November 29, 2022

Time Code Weather Temp. Visibility Ceiling Wind METAR/SPECI
23:50
L
6 °C 500 m 4,500 ft Var Var 1 kt METAR EDDF 292250Z AUTO VRB01KT 0550 0500 R07L/0750N R07C/0650N R07R/1000N R18/0700N FG FEW018 BKN045 06/05 Q1020 TEMPO 1500 BCFG BKN001
23:20
L
6 °C 700 m - 250° 250° 3 kt METAR EDDF 292220Z AUTO 25003KT 1400 0700 R07L/1400D R07C/1900N R07R/1800D R18/1900N BCFG FEW001 06/06 Q1020 TEMPO 0600 FG BKN001
22:50
L
6 °C 1 km - Var Var 2 kt METAR EDDF 292150Z AUTO VRB02KT 3500 1000 R07L/P2000N R07C/P2000N R07R/P2000N R18/P2000N BR FEW005 06/06 Q1020 TEMPO 1000 BCFG BKN003
22:20
L
6 °C 1 km 4,900 ft 280° 280° 3 kt METAR EDDF 292120Z AUTO 28003KT 240V300 3500 1000 R07L/P2000N R07C/P2000N R07R/P2000N R18/P2000N -DZ BR FEW003 SCT043 BKN049 06/06 Q1020 TEMPO 1000 BCFG BKN003
21:50
L
6 °C 650 m 4,500 ft Var Var 3 kt METAR EDDF 292050Z AUTO VRB03KT 5000 0650 R07L/1700D R07C/P2000N R07R/P2000N R18/P2000N BCFG FEW005 BKN045 06/06 Q1020 TEMPO 1000 BKN004
21:20
L
7 °C 1 km - 180° 180° 2 kt METAR EDDF 292020Z AUTO 18002KT 5000 1000 R07L/P2000N R07C/P2000N R07R/P2000N R18/P2000N -DZ BR SCT007 07/06 Q1020 TEMPO 1000 BCFG BKN007
20:50
L
7 °C 1 km 600 ft Var Var 2 kt METAR EDDF 291950Z AUTO VRB02KT 7000 1000 R07L/1200N R07C/P2000N R07R/P2000N R18/P2000N BR BKN006 BKN038 07/07 Q1020 TEMPO 1000 BCFG
20:20
I
8 °C 6 km 500 ft Var Var 2 kt METAR EDDF 291920Z AUTO VRB02KT 6000 BKN005 BKN010 08/07 Q1020 TEMPO 3000 BCFG
19:50
L
8 °C 1.1 km 500 ft Var Var 2 kt METAR EDDF 291850Z AUTO VRB02KT 6000 1100 R07L/P2000N R07C/P2000N R07R/P2000N R18/P2000N BR BKN005 BKN011 BKN038 08/07 Q1020 TEMPO 4000 BR BKN004
19:20
L
8 °C 500 m 500 ft Var Var 2 kt METAR EDDF 291820Z AUTO VRB02KT 6000 0500 R07L/1400N R07C/1900N R07R/P2000N R18/P2000N BCFG BKN005 BKN038 08/07 Q1020 TEMPO 4000 BR BKN004
18:50
L
7 °C 550 m - Var Var 1 kt METAR EDDF 291750Z AUTO VRB01KT 6000 0550 R07L/1400U R07C/P2000N R07R/1600U R18/1900N BCFG SCT007 07/07 Q1019 TEMPO 3000 BR BKN007
18:20
L
7 °C 1 km 600 ft Var Var 1 kt METAR EDDF 291720Z AUTO VRB01KT 6000 1000 R07L/P2000N R07C/P2000N R07R/P2000N R18/P2000N BR BKN006 BKN015 07/07 Q1019 TEMPO 3000 BR
17:50
L
7 °C 900 m 500 ft Var Var 2 kt METAR EDDF 291650Z AUTO VRB02KT 6000 0900 R07L/P2000N R07C/P2000N R07R/P2000N R18/P2000N BCFG BKN005 07/07 Q1019 TEMPO 3000 BR
17:20
I
7 °C 2 km 500 ft Var Var 1 kt METAR EDDF 291620Z AUTO VRB01KT 5000 2000 BR BKN005 BKN037 07/07 Q1019 TEMPO 2000 BR
16:50
L
8 °C 1.1 km 600 ft 170° 170° 2 kt METAR EDDF 291550Z AUTO 17002KT 6000 1100 R07L/P2000N R07C/P2000N R07R/P2000N R18/P2000N BR BKN006 BKN037 08/07 Q1019 NOSIG
16:20
I
8 °C 7 km 700 ft Var Var 1 kt METAR EDDF 291520Z AUTO VRB01KT 7000 BKN007 BKN039 08/08 Q1018 NOSIG
15:50
M
8 °C 7 km 2,400 ft 120° 120° 1 kt METAR EDDF 291450Z AUTO 12001KT 7000 FEW005 BKN024 OVC036 08/08 Q1018 TEMPO BKN005
15:20
M
8 °C 8 km 1,800 ft Var Var 1 kt METAR EDDF 291420Z AUTO VRB01KT 8000 FEW005 BKN018 OVC028 08/08 Q1018 TEMPO BKN005
14:50
M
8 °C 7 km 1,200 ft Var 000° 0 kt METAR EDDF 291350Z AUTO 00000KT 7000 SCT005 BKN012 OVC024 08/07 Q1018 TEMPO BKN005
14:20
I
8 °C 7 km 600 ft 360° 360° 3 kt METAR EDDF 291320Z AUTO 36003KT 330V070 7000 -SHRA BKN006 BKN013 FEW///TCU 08/07 Q1018 TEMPO SCT006 BKN013
13:50
I
8 °C 7 km 500 ft Var Var 2 kt METAR EDDF 291250Z AUTO VRB02KT 7000 BKN005 BKN014 OVC023 08/07 Q1018 TEMPO SCT005 BKN015
13:20
I
8 °C 8 km 700 ft Var Var 2 kt METAR EDDF 291220Z AUTO VRB02KT 8000 SCT004 BKN007 BKN015 08/07 Q1018 TEMPO SCT007 BKN015
12:50
M
8 °C 7 km 1,500 ft Var Var 2 kt METAR EDDF 291150Z AUTO VRB02KT 7000 FEW003 BKN015 OVC033 08/07 Q1018 NOSIG
12:20
I
7 °C 9 km 500 ft Var Var 2 kt METAR EDDF 291120Z AUTO VRB02KT 9000 BKN005 BKN008 BKN014 07/07 Q1017 BECMG BKN012
11:50
I
7 °C 9 km 700 ft 170° 170° 2 kt METAR EDDF 291050Z AUTO 17002KT 9000 BKN007 BKN016 07/07 Q1017 NOSIG
11:20
I
7 °C 9 km 800 ft Var Var 1 kt METAR EDDF 291020Z AUTO VRB01KT 9000 FEW003 BKN008 07/07 Q1017 NOSIG
10:50
I
7 °C 8 km 800 ft 230° 230° 2 kt METAR EDDF 290950Z AUTO 23002KT 8000 SCT003 BKN008 07/06 Q1017 NOSIG
10:20
L
7 °C 6 km 400 ft 200° 200° 2 kt METAR EDDF 290920Z AUTO 20002KT 6000 BKN004 OVC008 07/06 Q1017 BECMG BKN005
09:50
I
7 °C 5 km 500 ft 210° 210° 3 kt METAR EDDF 290850Z AUTO 21003KT 5000 BR BKN005 07/06 Q1017 NOSIG
09:20
L
6 °C 5 km 400 ft 220° 220° 2 kt METAR EDDF 290820Z AUTO 22002KT 5000 -DZ BR BKN004 BKN020 06/06 Q1017 NOSIG
08:50
L
6 °C 5 km 400 ft 200° 200° 2 kt METAR EDDF 290750Z AUTO 20002KT 5000 BR BKN004 BKN020 06/06 Q1016 NOSIG
08:20
L
6 °C 5 km 400 ft 190° 190° 3 kt METAR EDDF 290720Z AUTO 19003KT 5000 BR BKN004 BKN023 BKN027 06/06 Q1016 NOSIG
07:50
L
6 °C 6 km 400 ft 150° 150° 2 kt METAR EDDF 290650Z AUTO 15002KT 6000 BKN004 BKN026 BKN040 06/06 Q1016 NOSIG
07:20
L
6 °C 5 km 400 ft Var Var 1 kt METAR EDDF 290620Z AUTO VRB01KT 5000 -DZ BR BKN004 BKN028 06/06 Q1016 NOSIG
06:50
L
6 °C 1.7 km 400 ft 210° 210° 1 kt METAR EDDF 290550Z AUTO 21001KT 4700 1700 BR BKN004 BKN030 06/06 Q1015 TEMPO 6000 SCT004
06:20
L
6 °C 1.9 km 400 ft 170° 170° 2 kt METAR EDDF 290520Z AUTO 17002KT 5000 1900 BR BKN004 BKN008 OVC041 06/06 Q1015 TEMPO 3000
05:50
L
6 °C 5 km 400 ft 160° 160° 1 kt METAR EDDF 290450Z AUTO 16001KT 5000 BR BKN004 BKN033 BKN039 06/06 Q1015 TEMPO 2500
05:20
L
6 °C 1.4 km 300 ft 200° 200° 1 kt METAR EDDF 290420Z AUTO 20001KT 4300 1400 R25R/P2000N R25C/P2000N R25L/P2000N R18/P2000N BR BKN003 BKN006 BKN031 06/06 Q1015 TEMPO 2500
04:50
L
6 °C 1.4 km 300 ft 200° 200° 2 kt METAR EDDF 290350Z AUTO 20002KT 3500 1400 R25R/P2000N R25C/P2000N R25L/P2000N R18/P2000N -DZ BR BKN003 BKN028 06/06 Q1015 TEMPO 2500
04:20
L
6 °C 3.6 km 300 ft 210° 210° 2 kt METAR EDDF 290320Z AUTO 21002KT 3600 -RADZ BR BKN003 BKN027 06/06 Q1014 TEMPO 2500
03:50
L
6 °C 4.4 km 400 ft 140° 140° 1 kt METAR EDDF 290250Z AUTO 14001KT 4400 -RADZ BR BKN004 BKN024 06/06 Q1014 NOSIG
03:20
L
6 °C 4.2 km 400 ft 270° 270° 1 kt METAR EDDF 290220Z AUTO 27001KT 4200 -RADZ BR OVC004 06/06 Q1014 NOSIG
02:50
L
6 °C 3.9 km 400 ft Var 000° 0 kt METAR EDDF 290150Z AUTO 00000KT 3900 -RADZ BR BKN004 BKN014 06/06 Q1014 BECMG BKN004
02:20
I
6 °C 5 km 700 ft 010° 010° 1 kt METAR EDDF 290120Z AUTO 01001KT 5000 -RA BR FEW001 BKN007 BKN016 06/06 Q1014 TEMPO 4000
01:50
I
6 °C 4.7 km 700 ft 080° 080° 2 kt METAR EDDF 290050Z AUTO 08002KT 4700 -RA BR FEW002 BKN007 BKN017 06/06 Q1014 TEMPO 6000 BKN010
01:20
I
6 °C 5 km 700 ft 060° 060° 2 kt METAR EDDF 290020Z AUTO 06002KT 5000 -RADZ BR FEW002 BKN007 06/06 Q1014 TEMPO 4000
00:50
I
6 °C 5 km 700 ft 070° 070° 2 kt METAR EDDF 282350Z AUTO 07002KT 5000 -RADZ BR FEW002 BKN007 06/06 Q1014 TEMPO 4000
00:20
I
6 °C 4.8 km 700 ft 040° 040° 2 kt METAR EDDF 282320Z AUTO 04002KT 4800 -RADZ BR FEW000 BKN007 06/06 Q1014 TEMPO 4000

November 28, 2022

Time Code Weather Temp. Visibility Ceiling Wind METAR/SPECI
23:50
I
6 °C 5 km 800 ft 060° 060° 2 kt METAR EDDF 282250Z AUTO 06002KT 5000 -RADZ BR BKN008 BKN014 BKN044 06/06 Q1014 TEMPO 4000
23:20
M
6 °C 6 km 1,400 ft 080° 080° 1 kt METAR EDDF 282220Z AUTO 08001KT 6000 -RA FEW008 BKN014 BKN044 06/06 Q1014 BECMG BKN013
22:50
M
6 °C 7 km 1,600 ft Var Var 1 kt METAR EDDF 282150Z AUTO VRB01KT 7000 -RA SCT008 BKN016 BKN044 06/06 Q1014 BECMG BKN012
22:20
M
6 °C 7 km 1,600 ft Var Var 2 kt METAR EDDF 282120Z AUTO VRB02KT 7000 -RA FEW009 BKN016 OVC044 06/05 Q1014 BECMG BKN014
21:50
M
6 °C 9 km 1,800 ft 130° 130° 2 kt METAR EDDF 282050Z AUTO 13002KT 9000 -RA FEW009 BKN018 OVC047 06/05 Q1014
21:20
M
6 °C 10 km+ 1,800 ft 090° 090° 2 kt METAR EDDF 282020Z AUTO 09002KT 9999 BKN018 06/05 Q1013 TEMPO BKN014
20:50
M
6 °C 10 km+ 2,100 ft Var Var 1 kt METAR EDDF 281950Z AUTO VRB01KT 9999 BKN021 BKN043 06/05 Q1013
20:20
M
6 °C 10 km+ 2,200 ft 160° 160° 1 kt METAR EDDF 281920Z AUTO 16001KT 9999 BKN022 OVC042 06/05 Q1013 NOSIG
19:50
M
6 °C 10 km+ 2,200 ft Var Var 1 kt METAR EDDF 281850Z AUTO VRB01KT 9999 BKN022 OVC042 06/05 Q1013 NOSIG
19:20
V
6 °C 10 km+ 4,200 ft Var Var 1 kt METAR EDDF 281820Z AUTO VRB01KT 9999 OVC042 06/05 Q1013 NOSIG
18:50
V
6 °C 10 km+ 4,200 ft Var Var 1 kt METAR EDDF 281750Z AUTO VRB01KT 9999 FEW035 BKN042 06/05 Q1013 NOSIG
18:20
I
6 °C 4.2 km 4,000 ft Var Var 1 kt METAR EDDF 281720Z AUTO VRB01KT 9999 4200 -DZ BR SCT034 OVC040 06/05 Q1013
17:50
I
6 °C 4.1 km 3,200 ft 210° 210° 1 kt METAR EDDF 281650Z AUTO 21001KT 9999 4100 BR FEW007 BKN032 06/06 Q1013 NOSIG
17:20
M
6 °C 10 km+ 2,800 ft Var Var 1 kt METAR EDDF 281620Z AUTO VRB01KT 9999 FEW007 BKN028 OVC038 06/06 Q1013 BECMG BKN014
16:50
M
6 °C 10 km+ 2,900 ft 160° 160° 1 kt METAR EDDF 281550Z AUTO 16001KT 9999 FEW016 BKN029 BKN037 06/05 Q1013 BECMG BKN014
16:20
V
6 °C 10 km+ 4,600 ft 240° 240° 3 kt METAR EDDF 281520Z AUTO 24003KT 9999 FEW028 BKN046 06/05 Q1013 NOSIG
15:50
V
6 °C 10 km+ 4,500 ft Var Var 2 kt METAR EDDF 281450Z AUTO VRB02KT 9999 FEW005 BKN045 06/05 Q1013 TEMPO BKN014
15:20
M
6 °C 10 km+ 1,600 ft 280° 280° 3 kt METAR EDDF 281420Z AUTO 28003KT 240V310 9999 FEW006 OVC016 06/05 Q1013 TEMPO BKN014
14:50
M
6 °C 10 km+ 1,500 ft Var Var 2 kt METAR EDDF 281350Z AUTO VRB02KT 9999 FEW007 OVC015 06/05 Q1013 TEMPO BKN014
14:20
M
6 °C 10 km+ 1,300 ft 200° 200° 4 kt METAR EDDF 281320Z AUTO 20004KT 9999 FEW008 BKN013 06/05 Q1013 NOSIG
13:50
M
6 °C 10 km+ 1,300 ft 200° 200° 3 kt METAR EDDF 281250Z AUTO 20003KT 9999 -RA BKN013 BKN018 OVC033 06/05 Q1013 NOSIG
13:20
M
6 °C 10 km+ 2,000 ft 190° 190° 5 kt METAR EDDF 281220Z AUTO 19005KT 9999 -RA SCT016 BKN020 BKN037 06/04 Q1013 BECMG BKN014
12:50
M
7 °C 10 km+ 2,200 ft 210° 210° 5 kt METAR EDDF 281150Z AUTO 21005KT 180V240 9999 -RADZ BKN022 BKN031 BKN044 07/03 Q1013 NOSIG
12:20
V
7 °C 10 km+ 3,100 ft Var Var 2 kt METAR EDDF 281120Z AUTO VRB02KT 9999 BKN031 BKN046 07/03 Q1013 BECMG 18005KT
11:50
V
6 °C 10 km+ 3,100 ft Var Var 1 kt METAR EDDF 281050Z AUTO VRB01KT 9999 OVC031 06/03 Q1013 BECMG 18005KT
11:20
V
6 °C 10 km+ 3,400 ft Var Var 1 kt METAR EDDF 281020Z AUTO VRB01KT 9999 OVC034 06/02 Q1013 NOSIG
10:50
V
5 °C 10 km+ 3,800 ft Var Var 2 kt METAR EDDF 280950Z AUTO VRB02KT 9999 BKN038 05/02 Q1013 NOSIG

We and third parties follow your internet behavior on our website with cookies. If you continue, we assume you agree with our cookie policy.